sensor_id;sensor_type;location;lat;lon;timestamp;pressure;altitude;pressure_sealevel;temperature;humidity
54122;BME280;40029;58.708;50.190;2023-05-12T00:00:12;100528.38;;;8.42;36.67
54122;BME280;40029;58.708;50.190;2023-05-12T00:02:46;100519.78;;;8.36;36.54
54122;BME280;40029;58.708;50.190;2023-05-12T00:05:18;100525.72;;;8.44;36.11
54122;BME280;40029;58.708;50.190;2023-05-12T00:07:49;100471.78;;;8.09;36.21
54122;BME280;40029;58.708;50.190;2023-05-12T00:10:20;100486.41;;;8.13;36.41
54122;BME280;40029;58.708;50.190;2023-05-12T00:12:51;100508.72;;;8.24;36.47
54122;BME280;40029;58.708;50.190;2023-05-12T00:15:22;100525.03;;;8.31;36.32
54122;BME280;40029;58.708;50.190;2023-05-12T00:17:53;100471.19;;;7.91;36.46
54122;BME280;40029;58.708;50.190;2023-05-12T00:20:25;100473.78;;;7.91;36.26
54122;BME280;40029;58.708;50.190;2023-05-12T00:23:15;100466.94;;;7.87;36.36
54122;BME280;40029;58.708;50.190;2023-05-12T00:25:46;100509.03;;;8.05;36.84
54122;BME280;40029;58.708;50.190;2023-05-12T00:28:17;100527.09;;;8.11;36.45
54122;BME280;40029;58.708;50.190;2023-05-12T00:30:49;100523.69;;;8.09;36.50
54122;BME280;40029;58.708;50.190;2023-05-12T00:33:20;100515.09;;;8.05;36.71
54122;BME280;40029;58.708;50.190;2023-05-12T00:35:51;100469.59;;;7.81;36.39
54122;BME280;40029;58.708;50.190;2023-05-12T00:38:22;100477.34;;;7.84;36.75
54122;BME280;40029;58.708;50.190;2023-05-12T00:40:53;100449.09;;;7.66;36.82
54122;BME280;40029;58.708;50.190;2023-05-12T00:43:24;100446.59;;;7.61;36.43
54122;BME280;40029;58.708;50.190;2023-05-12T00:45:55;100452.47;;;7.71;36.61
54122;BME280;40029;58.708;50.190;2023-05-12T00:48:27;100518.53;;;8.07;36.34
54122;BME280;40029;58.708;50.190;2023-05-12T00:50:59;100469.56;;;7.84;36.28
54122;BME280;40029;58.708;50.190;2023-05-12T00:53:32;100512.38;;;8.11;36.27
54122;BME280;40029;58.708;50.190;2023-05-12T00:56:04;100505.50;;;8.09;36.33
54122;BME280;40029;58.708;50.190;2023-05-12T00:58:35;100502.00;;;8.13;36.00
54122;BME280;40029;58.708;50.190;2023-05-12T01:01:06;100477.16;;;7.96;36.19
54122;BME280;40029;58.708;50.190;2023-05-12T01:03:38;100445.31;;;7.85;35.82
54122;BME280;40029;58.708;50.190;2023-05-12T01:06:37;100447.72;;;7.97;35.90
54122;BME280;40029;58.708;50.190;2023-05-12T01:09:14;100443.53;;;7.89;36.65
54122;BME280;40029;58.708;50.190;2023-05-12T01:11:46;100498.38;;;8.21;35.77
54122;BME280;40029;58.708;50.190;2023-05-12T01:14:36;100494.00;;;8.23;36.07
54122;BME280;40029;58.708;50.190;2023-05-12T01:17:31;100438.16;;;8.01;35.61
54122;BME280;40029;58.708;50.190;2023-05-12T01:20:05;100502.47;;;8.38;35.82
54122;BME280;40029;58.708;50.190;2023-05-12T01:22:38;100458.75;;;8.10;36.32
54122;BME280;40029;58.708;50.190;2023-05-12T01:25:10;100454.50;;;8.06;36.10
54122;BME280;40029;58.708;50.190;2023-05-12T01:27:44;100502.41;;;8.41;36.08
54122;BME280;40029;58.708;50.190;2023-05-12T01:30:17;100502.31;;;8.47;35.87
54122;BME280;40029;58.708;50.190;2023-05-12T01:33:08;100460.22;;;8.26;36.39
54122;BME280;40029;58.708;50.190;2023-05-12T01:35:39;100445.63;;;8.19;36.59
54122;BME280;40029;58.708;50.190;2023-05-12T01:38:10;100430.94;;;8.18;36.69
54122;BME280;40029;58.708;50.190;2023-05-12T01:40:43;100440.31;;;8.27;36.61
54122;BME280;40029;58.708;50.190;2023-05-12T01:43:14;100438.47;;;8.34;36.13
54122;BME280;40029;58.708;50.190;2023-05-12T01:46:04;100406.63;;;8.22;36.22
54122;BME280;40029;58.708;50.190;2023-05-12T01:48:35;100493.00;;;8.82;36.44
54122;BME280;40029;58.708;50.190;2023-05-12T01:51:08;100481.72;;;8.83;36.66
54122;BME280;40029;58.708;50.190;2023-05-12T01:53:40;100454.25;;;8.69;36.77
54122;BME280;40029;58.708;50.190;2023-05-12T01:56:12;100452.34;;;8.79;36.67
54122;BME280;40029;58.708;50.190;2023-05-12T01:58:43;100442.66;;;8.87;36.29
54122;BME280;40029;58.708;50.190;2023-05-12T02:01:15;100484.53;;;9.15;35.75
54122;BME280;40029;58.708;50.190;2023-05-12T02:03:46;100415.75;;;8.90;36.14
54122;BME280;40029;58.708;50.190;2023-05-12T02:06:18;100439.59;;;9.09;35.76
54122;BME280;40029;58.708;50.190;2023-05-12T02:08:49;100443.78;;;9.16;35.77
54122;BME280;40029;58.708;50.190;2023-05-12T02:11:21;100477.75;;;9.48;35.24
54122;BME280;40029;58.708;50.190;2023-05-12T02:13:52;100478.47;;;9.55;35.13
54122;BME280;40029;58.708;50.190;2023-05-12T02:16:42;100473.00;;;9.67;34.83
54122;BME280;40029;58.708;50.190;2023-05-12T02:19:14;100443.78;;;9.56;35.11
54122;BME280;40029;58.708;50.190;2023-05-12T02:21:45;100443.53;;;9.67;34.75
54122;BME280;40029;58.708;50.190;2023-05-12T02:24:16;100488.56;;;10.06;34.77
54122;BME280;40029;58.708;50.190;2023-05-12T02:26:48;100454.81;;;10.03;34.23
54122;BME280;40029;58.708;50.190;2023-05-12T02:29:19;100425.25;;;10.04;34.07
54122;BME280;40029;58.708;50.190;2023-05-12T02:31:51;100456.47;;;10.40;33.78
54122;BME280;40029;58.708;50.190;2023-05-12T02:34:23;100421.78;;;10.39;33.37
54122;BME280;40029;58.708;50.190;2023-05-12T02:36:54;100422.13;;;10.58;33.13
54122;BME280;40029;58.708;50.190;2023-05-12T02:39:25;100425.91;;;10.79;32.67
54122;BME280;40029;58.708;50.190;2023-05-12T02:41:56;100468.03;;;11.24;32.17
54122;BME280;40029;58.708;50.190;2023-05-12T02:44:28;100454.53;;;11.40;32.79
54122;BME280;40029;58.708;50.190;2023-05-12T02:46:59;100462.50;;;11.63;31.40
54122;BME280;40029;58.708;50.190;2023-05-12T02:49:30;100477.25;;;11.94;31.05
54122;BME280;40029;58.708;50.190;2023-05-12T02:52:03;100455.81;;;12.09;31.60
54122;BME280;40029;58.708;50.190;2023-05-12T02:54:34;100422.69;;;12.11;30.78
54122;BME280;40029;58.708;50.190;2023-05-12T02:57:06;100470.63;;;12.60;30.28
54122;BME280;40029;58.708;50.190;2023-05-12T02:59:37;100470.84;;;12.79;29.58
54122;BME280;40029;58.708;50.190;2023-05-12T03:02:08;100336.44;;;12.13;29.62
54122;BME280;40029;58.708;50.190;2023-05-12T03:04:39;100415.63;;;12.87;29.25
54122;BME280;40029;58.708;50.190;2023-05-12T03:07:11;100447.94;;;13.33;29.09
54122;BME280;40029;58.708;50.190;2023-05-12T03:09:43;100457.28;;;13.62;28.50
54122;BME280;40029;58.708;50.190;2023-05-12T03:12:14;100445.28;;;13.78;28.55
54122;BME280;40029;58.708;50.190;2023-05-12T03:14:45;100443.09;;;13.89;28.30
54122;BME280;40029;58.708;50.190;2023-05-12T03:17:16;100450.19;;;14.08;28.09
54122;BME280;40029;58.708;50.190;2023-05-12T03:20:07;100396.63;;;13.93;27.53
54122;BME280;40029;58.708;50.190;2023-05-12T03:22:39;100416.25;;;14.25;27.49
54122;BME280;40029;58.708;50.190;2023-05-12T03:25:11;100437.13;;;14.48;27.30
54122;BME280;40029;58.708;50.190;2023-05-12T03:28:01;100423.53;;;14.59;27.18
54122;BME280;40029;58.708;50.190;2023-05-12T03:30:34;100438.44;;;14.78;26.91
54122;BME280;40029;58.708;50.190;2023-05-12T03:33:05;100422.38;;;14.85;26.87
54122;BME280;40029;58.708;50.190;2023-05-12T03:35:54;100445.66;;;15.12;26.80
54122;BME280;40029;58.708;50.190;2023-05-12T03:38:27;100394.66;;;14.98;26.42
54122;BME280;40029;58.708;50.190;2023-05-12T03:41:03;100399.91;;;15.17;26.12
54122;BME280;40029;58.708;50.190;2023-05-12T03:43:35;100409.84;;;15.30;25.69
54122;BME280;40029;58.708;50.190;2023-05-12T03:46:07;100431.06;;;15.61;24.75
54122;BME280;40029;58.708;50.190;2023-05-12T03:48:38;100432.22;;;15.74;23.56
54122;BME280;40029;58.708;50.190;2023-05-12T03:51:09;100424.56;;;15.87;22.51
54122;BME280;40029;58.708;50.190;2023-05-12T03:53:40;100386.47;;;15.79;21.74
54122;BME280;40029;58.708;50.190;2023-05-12T03:56:15;100412.06;;;16.10;21.40
54122;BME280;40029;58.708;50.190;2023-05-12T03:58:47;100423.72;;;16.21;21.22
54122;BME280;40029;58.708;50.190;2023-05-12T04:01:20;100437.50;;;16.44;20.98
54122;BME280;40029;58.708;50.190;2023-05-12T04:03:51;100437.66;;;16.41;20.19
54122;BME280;40029;58.708;50.190;2023-05-12T04:06:22;100418.16;;;16.45;20.10
54122;BME280;40029;58.708;50.190;2023-05-12T04:08:53;100368.50;;;16.39;19.95
54122;BME280;40029;58.708;50.190;2023-05-12T04:11:24;100422.91;;;16.71;18.24
54122;BME280;40029;58.708;50.190;2023-05-12T04:13:55;100386.41;;;16.65;18.12
54122;BME280;40029;58.708;50.190;2023-05-12T04:16:27;100364.41;;;16.66;18.11
54122;BME280;40029;58.708;50.190;2023-05-12T04:18:58;100389.66;;;16.86;17.75
54122;BME280;40029;58.708;50.190;2023-05-12T04:21:29;100415.19;;;17.17;17.20
54122;BME280;40029;58.708;50.190;2023-05-12T04:24:19;100422.41;;;17.30;17.58
54122;BME280;40029;58.708;50.190;2023-05-12T04:26:50;100365.41;;;17.13;17.24
54122;BME280;40029;58.708;50.190;2023-05-12T04:29:22;100405.56;;;17.48;17.08
54122;BME280;40029;58.708;50.190;2023-05-12T04:31:54;100387.91;;;17.50;16.98
54122;BME280;40029;58.708;50.190;2023-05-12T04:34:25;100399.94;;;17.70;16.86
54122;BME280;40029;58.708;50.190;2023-05-12T04:36:57;100399.16;;;17.84;16.57
54122;BME280;40029;58.708;50.190;2023-05-12T04:39:29;100395.34;;;17.89;16.62
54122;BME280;40029;58.708;50.190;2023-05-12T04:42:00;100360.94;;;17.77;16.39
54122;BME280;40029;58.708;50.190;2023-05-12T04:44:33;100366.06;;;17.94;15.98
54122;BME280;40029;58.708;50.190;2023-05-12T04:47:04;100394.38;;;18.20;15.65
54122;BME280;40029;58.708;50.190;2023-05-12T04:49:36;100401.44;;;18.34;15.96
54122;BME280;40029;58.708;50.190;2023-05-12T04:52:07;100319.94;;;18.01;15.52
54122;BME280;40029;58.708;50.190;2023-05-12T04:54:38;100342.38;;;18.22;15.13
54122;BME280;40029;58.708;50.190;2023-05-12T04:57:10;100380.47;;;18.61;14.89
54122;BME280;40029;58.708;50.190;2023-05-12T04:59:41;100352.28;;;18.62;14.43
54122;BME280;40029;58.708;50.190;2023-05-12T05:02:13;100346.56;;;18.69;14.05
54122;BME280;40029;58.708;50.190;2023-05-12T05:04:44;100390.34;;;19.01;13.58
54122;BME280;40029;58.708;50.190;2023-05-12T05:07:15;100355.84;;;18.89;12.96
54122;BME280;40029;58.708;50.190;2023-05-12T05:09:47;100335.09;;;18.97;12.82
54122;BME280;40029;58.708;50.190;2023-05-12T05:12:18;100350.69;;;19.15;12.37
54122;BME280;40029;58.708;50.190;2023-05-12T05:14:49;100376.94;;;19.45;12.12
54122;BME280;40029;58.708;50.190;2023-05-12T05:17:39;100380.97;;;19.51;11.54
54122;BME280;40029;58.708;50.190;2023-05-12T05:20:14;100378.78;;;19.57;11.50
54122;BME280;40029;58.708;50.190;2023-05-12T05:22:45;100329.00;;;19.37;11.36
54122;BME280;40029;58.708;50.190;2023-05-12T05:25:16;100326.31;;;19.51;11.46
54122;BME280;40029;58.708;50.190;2023-05-12T05:27:48;100360.59;;;19.80;11.11
54122;BME280;40029;58.708;50.190;2023-05-12T05:30:37;100315.13;;;19.60;11.24
54122;BME280;40029;58.708;50.190;2023-05-12T05:33:11;100326.81;;;19.70;10.91
54122;BME280;40029;58.708;50.190;2023-05-12T05:35:43;100326.31;;;19.78;10.85
54122;BME280;40029;58.708;50.190;2023-05-12T05:38:16;100320.06;;;19.79;10.72
54122;BME280;40029;58.708;50.190;2023-05-12T05:40:47;100310.63;;;19.75;10.70
54122;BME280;40029;58.708;50.190;2023-05-12T05:43:18;100317.97;;;19.84;10.72
54122;BME280;40029;58.708;50.190;2023-05-12T05:45:50;100348.34;;;20.04;10.93
54122;BME280;40029;58.708;50.190;2023-05-12T05:48:23;100348.88;;;19.96;10.76
54122;BME280;40029;58.708;50.190;2023-05-12T05:50:54;100311.72;;;19.72;10.80
54122;BME280;40029;58.708;50.190;2023-05-12T05:53:27;100328.84;;;19.80;10.38
54122;BME280;40029;58.708;50.190;2023-05-12T05:55:59;100276.03;;;19.65;9.85
54122;BME280;40029;58.708;50.190;2023-05-12T05:58:31;100346.78;;;20.14;10.07
54122;BME280;40029;58.708;50.190;2023-05-12T06:01:05;100301.66;;;19.90;9.96
54122;BME280;40029;58.708;50.190;2023-05-12T06:03:37;100266.97;;;19.82;10.26
54122;BME280;40029;58.708;50.190;2023-05-12T06:06:08;100339.25;;;20.34;10.13
54122;BME280;40029;58.708;50.190;2023-05-12T06:08:39;100294.06;;;20.11;10.27
54122;BME280;40029;58.708;50.190;2023-05-12T06:11:28;100292.56;;;20.20;10.02
54122;BME280;40029;58.708;50.190;2023-05-12T06:14:00;100333.53;;;20.27;9.90
54122;BME280;40029;58.708;50.190;2023-05-12T06:16:31;100321.03;;;20.42;9.97
54122;BME280;40029;58.708;50.190;2023-05-12T06:19:02;100334.41;;;20.53;9.80
54122;BME280;40029;58.708;50.190;2023-05-12T06:21:33;100297.22;;;20.42;9.81
54122;BME280;40029;58.708;50.190;2023-05-12T06:24:05;100315.13;;;20.51;10.11
54122;BME280;40029;58.708;50.190;2023-05-12T06:26:36;100323.28;;;20.48;9.84
54122;BME280;40029;58.708;50.190;2023-05-12T06:29:07;100308.44;;;20.45;9.53
54122;BME280;40029;58.708;50.190;2023-05-12T06:31:38;100266.94;;;20.33;9.63
54122;BME280;40029;58.708;50.190;2023-05-12T06:34:28;100265.59;;;20.28;9.54
54122;BME280;40029;58.708;50.190;2023-05-12T06:36:59;100233.09;;;20.13;9.44
54122;BME280;40029;58.708;50.190;2023-05-12T06:39:31;100300.81;;;20.54;9.80
54122;BME280;40029;58.708;50.190;2023-05-12T06:42:02;100306.50;;;20.73;9.60
54122;BME280;40029;58.708;50.190;2023-05-12T06:44:44;100267.88;;;20.58;9.28
54122;BME280;40029;58.708;50.190;2023-05-12T06:47:15;100307.19;;;20.88;9.14
54122;BME280;40029;58.708;50.190;2023-05-12T06:49:47;100300.63;;;20.81;8.91
54122;BME280;40029;58.708;50.190;2023-05-12T06:52:21;100266.38;;;20.66;8.87
54122;BME280;40029;58.708;50.190;2023-05-12T06:54:53;100252.81;;;20.71;8.60
54122;BME280;40029;58.708;50.190;2023-05-12T06:57:24;100292.16;;;20.88;8.77
54122;BME280;40029;58.708;50.190;2023-05-12T06:59:56;100241.03;;;20.75;8.86
54122;BME280;40029;58.708;50.190;2023-05-12T07:02:27;100284.31;;;21.11;8.91
54122;BME280;40029;58.708;50.190;2023-05-12T07:04:58;100284.09;;;21.14;9.00
54122;BME280;40029;58.708;50.190;2023-05-12T07:07:30;100278.56;;;21.17;8.81
54122;BME280;40029;58.708;50.190;2023-05-12T07:10:01;100246.00;;;21.04;8.93
54122;BME280;40029;58.708;50.190;2023-05-12T07:12:35;100271.34;;;21.19;9.01
54122;BME280;40029;58.708;50.190;2023-05-12T07:15:25;100235.69;;;20.88;9.08
54122;BME280;40029;58.708;50.190;2023-05-12T07:17:56;100236.25;;;21.04;8.89
54122;BME280;40029;58.708;50.190;2023-05-12T07:20:27;100222.88;;;21.06;8.61
54122;BME280;40029;58.708;50.190;2023-05-12T07:23:17;100230.03;;;21.16;8.38
54122;BME280;40029;58.708;50.190;2023-05-12T07:25:49;100260.41;;;21.48;8.37
54122;BME280;40029;58.708;50.190;2023-05-12T07:28:20;100258.03;;;21.56;8.37
54122;BME280;40029;58.708;50.190;2023-05-12T07:30:51;100262.25;;;21.58;7.91
54122;BME280;40029;58.708;50.190;2023-05-12T07:33:22;100249.50;;;21.63;7.79
54122;BME280;40029;58.708;50.190;2023-05-12T07:35:53;100249.13;;;21.68;7.80
54122;BME280;40029;58.708;50.190;2023-05-12T07:38:25;100246.63;;;21.78;8.41
54122;BME280;40029;58.708;50.190;2023-05-12T07:40:56;100253.13;;;21.96;7.87
54122;BME280;40029;58.708;50.190;2023-05-12T07:43:27;100237.84;;;22.11;7.72
54122;BME280;40029;58.708;50.190;2023-05-12T07:45:58;100237.97;;;22.20;7.95
54122;BME280;40029;58.708;50.190;2023-05-12T07:48:30;100232.19;;;22.15;7.68
54122;BME280;40029;58.708;50.190;2023-05-12T07:51:02;100245.06;;;22.09;7.74
54122;BME280;40029;58.708;50.190;2023-05-12T07:53:33;100184.53;;;21.80;8.20
54122;BME280;40029;58.708;50.190;2023-05-12T07:56:23;100233.59;;;22.08;7.80
54122;BME280;40029;58.708;50.190;2023-05-12T07:58:54;100219.88;;;21.92;7.62
54122;BME280;40029;58.708;50.190;2023-05-12T08:01:25;100215.91;;;21.98;7.36
54122;BME280;40029;58.708;50.190;2023-05-12T08:03:57;100185.84;;;21.75;8.14
54122;BME280;40029;58.708;50.190;2023-05-12T08:06:28;100227.47;;;21.85;8.11
54122;BME280;40029;58.708;50.190;2023-05-12T08:08:59;100178.50;;;21.78;7.73
54122;BME280;40029;58.708;50.190;2023-05-12T08:11:31;100216.59;;;22.00;7.81
54122;BME280;40029;58.708;50.190;2023-05-12T08:14:02;100161.63;;;21.68;7.72
54122;BME280;40029;58.708;50.190;2023-05-12T08:16:33;100203.94;;;22.03;7.74
54122;BME280;40029;58.708;50.190;2023-05-12T08:19:05;100151.50;;;21.73;7.73
54122;BME280;40029;58.708;50.190;2023-05-12T08:21:36;100158.59;;;21.73;7.59
54122;BME280;40029;58.708;50.190;2023-05-12T08:24:07;100128.47;;;21.62;7.59
54122;BME280;40029;58.708;50.190;2023-05-12T08:26:38;100183.47;;;22.05;7.63
54122;BME280;40029;58.708;50.190;2023-05-12T08:29:09;100201.41;;;21.79;7.71
54122;BME280;40029;58.708;50.190;2023-05-12T08:31:41;100188.03;;;22.03;7.60
54122;BME280;40029;58.708;50.190;2023-05-12T08:34:12;100189.75;;;22.15;7.95
54122;BME280;40029;58.708;50.190;2023-05-12T08:37:02;100181.16;;;22.23;7.71
54122;BME280;40029;58.708;50.190;2023-05-12T08:39:33;100158.88;;;22.14;7.30
54122;BME280;40029;58.708;50.190;2023-05-12T08:42:42;100185.56;;;22.56;7.42
54122;BME280;40029;58.708;50.190;2023-05-12T08:45:14;100175.09;;;22.43;7.54
54122;BME280;40029;58.708;50.190;2023-05-12T08:47:45;100180.44;;;22.21;7.45
54122;BME280;40029;58.708;50.190;2023-05-12T08:50:17;100135.09;;;22.13;7.61
54122;BME280;40029;58.708;50.190;2023-05-12T08:52:52;100179.88;;;22.17;7.80
54122;BME280;40029;58.708;50.190;2023-05-12T08:55:42;100138.34;;;22.16;7.27
54122;BME280;40029;58.708;50.190;2023-05-12T08:58:34;100144.84;;;22.24;7.32
54122;BME280;40029;58.708;50.190;2023-05-12T09:01:10;100158.81;;;22.48;7.14
54122;BME280;40029;58.708;50.190;2023-05-12T09:03:41;100106.47;;;22.28;7.11
54122;BME280;40029;58.708;50.190;2023-05-12T09:06:31;100133.16;;;22.26;7.25
54122;BME280;40029;58.708;50.190;2023-05-12T09:09:03;100102.41;;;22.12;7.21
54122;BME280;40029;58.708;50.190;2023-05-12T09:11:34;100065.59;;;22.08;7.24
54122;BME280;40029;58.708;50.190;2023-05-12T09:14:09;100142.56;;;22.62;7.17
54122;BME280;40029;58.708;50.190;2023-05-12T09:16:44;100128.44;;;22.62;7.39
54122;BME280;40029;58.708;50.190;2023-05-12T09:19:20;100104.31;;;22.65;6.75
54122;BME280;40029;58.708;50.190;2023-05-12T09:21:51;100099.41;;;22.49;6.89
54122;BME280;40029;58.708;50.190;2023-05-12T09:24:43;100119.53;;;22.95;6.71
54122;BME280;40029;58.708;50.190;2023-05-12T09:27:23;100065.91;;;22.69;6.75
54122;BME280;40029;58.708;50.190;2023-05-12T09:29:54;100069.25;;;22.71;6.68
54122;BME280;40029;58.708;50.190;2023-05-12T09:32:44;100103.19;;;23.00;6.33
54122;BME280;40029;58.708;50.190;2023-05-12T09:35:16;100088.13;;;23.10;6.51
54122;BME280;40029;58.708;50.190;2023-05-12T09:37:47;100083.56;;;23.12;7.07
54122;BME280;40029;58.708;50.190;2023-05-12T09:40:18;100096.00;;;23.11;7.08
54122;BME280;40029;58.708;50.190;2023-05-12T09:42:49;100097.47;;;23.25;7.07
54122;BME280;40029;58.708;50.190;2023-05-12T09:45:39;100073.31;;;23.38;7.09
54122;BME280;40029;58.708;50.190;2023-05-12T09:48:11;100057.63;;;23.35;6.83
54122;BME280;40029;58.708;50.190;2023-05-12T09:51:02;100092.94;;;23.67;6.61
54122;BME280;40029;58.708;50.190;2023-05-12T09:53:39;100059.41;;;23.55;6.43
54122;BME280;40029;58.708;50.190;2023-05-12T09:56:13;100008.75;;;23.26;6.69
54122;BME280;40029;58.708;50.190;2023-05-12T09:58:46;100075.34;;;23.86;6.56
54122;BME280;40029;58.708;50.190;2023-05-12T10:01:19;100080.84;;;23.94;6.76
54122;BME280;40029;58.708;50.190;2023-05-12T10:03:54;100045.66;;;23.81;6.82
54122;BME280;40029;58.708;50.190;2023-05-12T10:06:29;100071.19;;;23.93;6.70
54122;BME280;40029;58.708;50.190;2023-05-12T10:09:13;100069.66;;;24.19;6.66
54122;BME280;40029;58.708;50.190;2023-05-12T10:11:46;100052.56;;;24.12;6.59
54122;BME280;40029;58.708;50.190;2023-05-12T10:14:18;100028.44;;;24.04;6.09
54122;BME280;40029;58.708;50.190;2023-05-12T10:17:11;100012.47;;;24.04;6.22
54122;BME280;40029;58.708;50.190;2023-05-12T10:19:43;100045.84;;;24.28;6.14
54122;BME280;40029;58.708;50.190;2023-05-12T10:22:15;100058.66;;;24.43;6.18
54122;BME280;40029;58.708;50.190;2023-05-12T10:24:48;100042.94;;;24.50;5.92
54122;BME280;40029;58.708;50.190;2023-05-12T10:27:19;100047.94;;;24.34;5.60
54122;BME280;40029;58.708;50.190;2023-05-12T10:29:52;100014.19;;;24.15;5.39
54122;BME280;40029;58.708;50.190;2023-05-12T10:32:42;100030.56;;;24.10;5.84
54122;BME280;40029;58.708;50.190;2023-05-12T10:35:14;100014.88;;;23.98;5.46
54122;BME280;40029;58.708;50.190;2023-05-12T10:37:45;100012.09;;;24.09;5.51
54122;BME280;40029;58.708;50.190;2023-05-12T10:40:24;100001.16;;;24.02;5.62
54122;BME280;40029;58.708;50.190;2023-05-12T10:42:58;99954.34;;;23.80;5.55
54122;BME280;40029;58.708;50.190;2023-05-12T10:45:36;99990.22;;;24.25;5.66
54122;BME280;40029;58.708;50.190;2023-05-12T10:48:07;100011.53;;;24.34;5.46
54122;BME280;40029;58.708;50.190;2023-05-12T10:50:52;99991.63;;;24.19;4.86
54122;BME280;40029;58.708;50.190;2023-05-12T10:53:27;100030.59;;;24.59;4.90
54122;BME280;40029;58.708;50.190;2023-05-12T10:55:58;100022.59;;;24.59;5.29
54122;BME280;40029;58.708;50.190;2023-05-12T10:58:32;99920.88;;;23.87;5.53
54122;BME280;40029;58.708;50.190;2023-05-12T11:01:05;100007.19;;;24.62;5.74
54122;BME280;40029;58.708;50.190;2023-05-12T11:03:36;100011.41;;;24.65;5.90
54122;BME280;40029;58.708;50.190;2023-05-12T11:06:17;99963.72;;;24.62;5.11
54122;BME280;40029;58.708;50.190;2023-05-12T11:08:49;100005.00;;;24.95;5.26
54122;BME280;40029;58.708;50.190;2023-05-12T11:11:21;100007.78;;;25.03;5.05
54122;BME280;40029;58.708;50.190;2023-05-12T11:13:52;99999.22;;;25.19;5.01
54122;BME280;40029;58.708;50.190;2023-05-12T11:16:25;99952.97;;;24.91;4.79
54122;BME280;40029;58.708;50.190;2023-05-12T11:19:02;100003.91;;;25.35;4.32
54122;BME280;40029;58.708;50.190;2023-05-12T11:21:34;100011.00;;;25.44;5.02
54122;BME280;40029;58.708;50.190;2023-05-12T11:24:06;99986.44;;;25.50;4.21
54122;BME280;40029;58.708;50.190;2023-05-12T11:26:39;100000.47;;;25.80;3.90
54122;BME280;40029;58.708;50.190;2023-05-12T11:29:11;100003.78;;;25.27;4.07
54122;BME280;40029;58.708;50.190;2023-05-12T11:31:46;99994.78;;;25.37;3.92
54122;BME280;40029;58.708;50.190;2023-05-12T11:34:24;99970.94;;;25.99;3.60
54122;BME280;40029;58.708;50.190;2023-05-12T11:36:55;99958.34;;;26.71;3.39
54122;BME280;40029;58.708;50.190;2023-05-12T11:39:28;99992.34;;;27.81;3.04
54122;BME280;40029;58.708;50.190;2023-05-12T11:42:04;99983.47;;;27.81;2.56
54122;BME280;40029;58.708;50.190;2023-05-12T11:44:36;99971.97;;;28.05;2.59
54122;BME280;40029;58.708;50.190;2023-05-12T11:47:11;99990.09;;;28.44;1.92
54122;BME280;40029;58.708;50.190;2023-05-12T11:49:50;99987.91;;;29.35;1.14
54122;BME280;40029;58.708;50.190;2023-05-12T11:52:23;99985.31;;;29.81;1.16
54122;BME280;40029;58.708;50.190;2023-05-12T11:55:19;99951.03;;;30.15;0.25
54122;BME280;40029;58.708;50.190;2023-05-12T12:00:34;99977.38;;;30.57;0.54
54122;BME280;40029;58.708;50.190;2023-05-12T12:03:10;99957.78;;;31.01;0.62
54122;BME280;40029;58.708;50.190;2023-05-12T12:06:00;99928.72;;;30.96;0.00
54122;BME280;40029;58.708;50.190;2023-05-12T12:08:32;99960.09;;;31.33;0.45
54122;BME280;40029;58.708;50.190;2023-05-12T12:11:03;99957.00;;;31.51;0.00
54122;BME280;40029;58.708;50.190;2023-05-12T12:13:37;99934.88;;;31.56;0.00
54122;BME280;40029;58.708;50.190;2023-05-12T12:16:08;99924.09;;;31.20;0.00
54122;BME280;40029;58.708;50.190;2023-05-12T12:18:39;99910.81;;;31.33;0.00
54122;BME280;40029;58.708;50.190;2023-05-12T12:21:10;99922.50;;;31.98;0.00
54122;BME280;40029;58.708;50.190;2023-05-12T12:23:41;99934.06;;;32.20;0.00
54122;BME280;40029;58.708;50.190;2023-05-12T12:26:13;99897.84;;;32.01;0.00
54122;BME280;40029;58.708;50.190;2023-05-12T12:28:46;99916.84;;;31.93;0.00
54122;BME280;40029;58.708;50.190;2023-05-12T12:31:17;99905.97;;;32.29;0.00
54122;BME280;40029;58.708;50.190;2023-05-12T12:33:49;99938.63;;;32.41;0.00
54122;BME280;40029;58.708;50.190;2023-05-12T12:36:20;99925.16;;;31.76;0.00
54122;BME280;40029;58.708;50.190;2023-05-12T12:38:52;99879.97;;;31.21;0.00
54122;BME280;40029;58.708;50.190;2023-05-12T12:41:24;99919.78;;;31.98;0.00
54122;BME280;40029;58.708;50.190;2023-05-12T12:43:55;99896.50;;;31.90;0.14
54122;BME280;40029;58.708;50.190;2023-05-12T12:46:26;99892.53;;;32.07;0.00
54122;BME280;40029;58.708;50.190;2023-05-12T12:49:16;99901.75;;;31.77;0.00
54122;BME280;40029;58.708;50.190;2023-05-12T12:51:47;99911.06;;;31.74;0.00
54122;BME280;40029;58.708;50.190;2023-05-12T12:54:37;99889.44;;;31.89;0.00
54122;BME280;40029;58.708;50.190;2023-05-12T12:57:08;99877.50;;;31.98;0.00
54122;BME280;40029;58.708;50.190;2023-05-12T12:59:40;99912.31;;;32.43;0.00
54122;BME280;40029;58.708;50.190;2023-05-12T13:02:11;99874.31;;;32.72;0.00
54122;BME280;40029;58.708;50.190;2023-05-12T13:04:43;99867.66;;;32.68;0.00
54122;BME280;40029;58.708;50.190;2023-05-12T13:07:14;99889.34;;;32.88;0.00
54122;BME280;40029;58.708;50.190;2023-05-12T13:09:46;99868.47;;;32.34;0.00
54122;BME280;40029;58.708;50.190;2023-05-12T13:12:17;99799.00;;;31.58;0.00
54122;BME280;40029;58.708;50.190;2023-05-12T13:14:48;99903.31;;;32.35;0.00
54122;BME280;40029;58.708;50.190;2023-05-12T13:17:19;99868.31;;;32.14;0.00
54122;BME280;40029;58.708;50.190;2023-05-12T13:19:51;99844.53;;;31.32;0.00
54122;BME280;40029;58.708;50.190;2023-05-12T13:22:25;99895.25;;;30.54;0.05
54122;BME280;40029;58.708;50.190;2023-05-12T13:24:59;99903.91;;;29.58;0.54